sensor_id;sensor_type;location;lat;lon;timestamp;P1;durP1;ratioP1;P2;durP2;ratioP2
1831;SDS011;1680;48.106;11.708;2023-06-10T00:00:28;12.30;;;11.40;;
1831;SDS011;1680;48.106;11.708;2023-06-10T00:02:56;12.47;;;11.27;;
1831;SDS011;1680;48.106;11.708;2023-06-10T00:05:24;12.47;;;11.40;;
1831;SDS011;1680;48.106;11.708;2023-06-10T00:07:56;11.93;;;10.80;;
1831;SDS011;1680;48.106;11.708;2023-06-10T00:10:24;12.10;;;10.93;;
1831;SDS011;1680;48.106;11.708;2023-06-10T00:12:51;11.00;;;10.20;;
1831;SDS011;1680;48.106;11.708;2023-06-10T00:15:19;12.53;;;11.37;;
1831;SDS011;1680;48.106;11.708;2023-06-10T00:17:46;10.70;;;9.70;;
1831;SDS011;1680;48.106;11.708;2023-06-10T00:20:14;10.60;;;9.80;;
1831;SDS011;1680;48.106;11.708;2023-06-10T00:22:41;11.53;;;10.53;;
1831;SDS011;1680;48.106;11.708;2023-06-10T00:25:12;10.70;;;9.77;;
1831;SDS011;1680;48.106;11.708;2023-06-10T00:27:40;10.97;;;10.07;;
1831;SDS011;1680;48.106;11.708;2023-06-10T00:30:07;10.30;;;9.40;;
1831;SDS011;1680;48.106;11.708;2023-06-10T00:32:35;11.07;;;10.17;;
1831;SDS011;1680;48.106;11.708;2023-06-10T00:35:03;10.70;;;9.87;;
1831;SDS011;1680;48.106;11.708;2023-06-10T00:37:31;10.73;;;9.83;;
1831;SDS011;1680;48.106;11.708;2023-06-10T00:40:00;10.60;;;9.67;;
1831;SDS011;1680;48.106;11.708;2023-06-10T00:42:28;11.17;;;10.27;;
1831;SDS011;1680;48.106;11.708;2023-06-10T00:44:55;11.67;;;10.57;;
1831;SDS011;1680;48.106;11.708;2023-06-10T00:47:23;10.67;;;9.77;;
1831;SDS011;1680;48.106;11.708;2023-06-10T00:49:51;10.37;;;9.47;;
1831;SDS011;1680;48.106;11.708;2023-06-10T00:52:20;10.33;;;9.50;;
1831;SDS011;1680;48.106;11.708;2023-06-10T00:54:54;10.80;;;9.90;;
1831;SDS011;1680;48.106;11.708;2023-06-10T00:57:21;9.80;;;9.00;;
1831;SDS011;1680;48.106;11.708;2023-06-10T00:59:50;10.03;;;9.23;;
1831;SDS011;1680;48.106;11.708;2023-06-10T01:02:18;9.67;;;8.90;;
1831;SDS011;1680;48.106;11.708;2023-06-10T01:04:45;11.37;;;10.27;;
1831;SDS011;1680;48.106;11.708;2023-06-10T01:07:15;10.17;;;9.03;;
1831;SDS011;1680;48.106;11.708;2023-06-10T01:09:49;11.40;;;9.23;;
1831;SDS011;1680;48.106;11.708;2023-06-10T01:12:26;10.87;;;9.87;;
1831;SDS011;1680;48.106;11.708;2023-06-10T01:14:59;10.03;;;9.13;;
1831;SDS011;1680;48.106;11.708;2023-06-10T01:17:29;10.67;;;9.77;;
1831;SDS011;1680;48.106;11.708;2023-06-10T01:19:57;10.07;;;9.20;;
1831;SDS011;1680;48.106;11.708;2023-06-10T01:22:26;9.90;;;9.10;;
1831;SDS011;1680;48.106;11.708;2023-06-10T01:24:57;10.47;;;9.53;;
1831;SDS011;1680;48.106;11.708;2023-06-10T01:27:26;9.80;;;9.00;;
1831;SDS011;1680;48.106;11.708;2023-06-10T01:30:01;9.13;;;8.43;;
1831;SDS011;1680;48.106;11.708;2023-06-10T01:32:34;9.97;;;9.00;;
1831;SDS011;1680;48.106;11.708;2023-06-10T01:35:07;9.23;;;8.43;;
1831;SDS011;1680;48.106;11.708;2023-06-10T01:37:37;10.80;;;9.90;;
1831;SDS011;1680;48.106;11.708;2023-06-10T01:40:07;10.33;;;9.53;;
1831;SDS011;1680;48.106;11.708;2023-06-10T01:42:34;9.93;;;9.13;;
1831;SDS011;1680;48.106;11.708;2023-06-10T01:45:02;10.27;;;9.37;;
1831;SDS011;1680;48.106;11.708;2023-06-10T01:47:30;9.90;;;9.10;;
1831;SDS011;1680;48.106;11.708;2023-06-10T01:49:57;10.67;;;9.77;;
1831;SDS011;1680;48.106;11.708;2023-06-10T01:52:25;9.73;;;8.93;;
1831;SDS011;1680;48.106;11.708;2023-06-10T01:54:53;9.63;;;8.73;;
1831;SDS011;1680;48.106;11.708;2023-06-10T01:57:20;10.10;;;9.30;;
1831;SDS011;1680;48.106;11.708;2023-06-10T01:59:48;9.97;;;9.13;;
1831;SDS011;1680;48.106;11.708;2023-06-10T02:02:15;9.60;;;8.80;;
1831;SDS011;1680;48.106;11.708;2023-06-10T02:04:42;9.47;;;8.77;;
1831;SDS011;1680;48.106;11.708;2023-06-10T02:07:09;9.63;;;8.93;;
1831;SDS011;1680;48.106;11.708;2023-06-10T02:09:37;10.17;;;9.30;;
1831;SDS011;1680;48.106;11.708;2023-06-10T02:12:06;10.33;;;9.53;;
1831;SDS011;1680;48.106;11.708;2023-06-10T02:14:34;9.80;;;9.00;;
1831;SDS011;1680;48.106;11.708;2023-06-10T02:17:01;9.50;;;8.77;;
1831;SDS011;1680;48.106;11.708;2023-06-10T02:19:29;10.70;;;9.80;;
1831;SDS011;1680;48.106;11.708;2023-06-10T02:21:57;10.47;;;9.53;;
1831;SDS011;1680;48.106;11.708;2023-06-10T02:24:24;10.50;;;9.70;;
1831;SDS011;1680;48.106;11.708;2023-06-10T02:26:51;10.03;;;9.13;;
1831;SDS011;1680;48.106;11.708;2023-06-10T02:29:19;10.20;;;9.20;;
1831;SDS011;1680;48.106;11.708;2023-06-10T02:31:46;10.70;;;9.90;;
1831;SDS011;1680;48.106;11.708;2023-06-10T02:34:14;9.43;;;8.70;;
1831;SDS011;1680;48.106;11.708;2023-06-10T02:36:41;9.97;;;9.20;;
1831;SDS011;1680;48.106;11.708;2023-06-10T02:39:08;9.23;;;8.57;;
1831;SDS011;1680;48.106;11.708;2023-06-10T02:41:35;9.60;;;8.90;;
1831;SDS011;1680;48.106;11.708;2023-06-10T02:44:03;10.50;;;9.60;;
1831;SDS011;1680;48.106;11.708;2023-06-10T02:46:32;10.07;;;9.27;;
1831;SDS011;1680;48.106;11.708;2023-06-10T02:48:59;9.83;;;9.03;;
1831;SDS011;1680;48.106;11.708;2023-06-10T02:51:26;9.53;;;8.80;;
1831;SDS011;1680;48.106;11.708;2023-06-10T02:53:54;10.60;;;9.70;;
1831;SDS011;1680;48.106;11.708;2023-06-10T02:56:21;10.13;;;9.23;;
1831;SDS011;1680;48.106;11.708;2023-06-10T02:58:48;9.93;;;9.13;;
1831;SDS011;1680;48.106;11.708;2023-06-10T03:01:16;10.00;;;9.10;;
1831;SDS011;1680;48.106;11.708;2023-06-10T03:03:45;10.20;;;9.40;;
1831;SDS011;1680;48.106;11.708;2023-06-10T03:06:12;10.00;;;9.20;;
1831;SDS011;1680;48.106;11.708;2023-06-10T03:08:40;10.03;;;9.23;;
1831;SDS011;1680;48.106;11.708;2023-06-10T03:11:07;10.27;;;9.47;;
1831;SDS011;1680;48.106;11.708;2023-06-10T03:13:35;10.40;;;9.60;;
1831;SDS011;1680;48.106;11.708;2023-06-10T03:16:02;9.43;;;8.63;;
1831;SDS011;1680;48.106;11.708;2023-06-10T03:18:30;10.23;;;9.33;;
1831;SDS011;1680;48.106;11.708;2023-06-10T03:20:58;10.67;;;9.77;;
1831;SDS011;1680;48.106;11.708;2023-06-10T03:23:25;10.87;;;9.97;;
1831;SDS011;1680;48.106;11.708;2023-06-10T03:25:54;10.60;;;9.80;;
1831;SDS011;1680;48.106;11.708;2023-06-10T03:28:22;10.23;;;9.33;;
1831;SDS011;1680;48.106;11.708;2023-06-10T03:30:49;10.47;;;9.50;;
1831;SDS011;1680;48.106;11.708;2023-06-10T03:33:16;10.17;;;9.27;;
1831;SDS011;1680;48.106;11.708;2023-06-10T03:35:44;10.03;;;9.23;;
1831;SDS011;1680;48.106;11.708;2023-06-10T03:38:12;10.67;;;9.80;;
1831;SDS011;1680;48.106;11.708;2023-06-10T03:40:39;11.20;;;10.20;;
1831;SDS011;1680;48.106;11.708;2023-06-10T03:43:07;10.37;;;9.57;;
1831;SDS011;1680;48.106;11.708;2023-06-10T03:45:34;10.27;;;9.50;;
1831;SDS011;1680;48.106;11.708;2023-06-10T03:48:01;10.23;;;9.43;;
1831;SDS011;1680;48.106;11.708;2023-06-10T03:50:29;10.67;;;9.80;;
1831;SDS011;1680;48.106;11.708;2023-06-10T03:52:57;10.30;;;9.50;;
1831;SDS011;1680;48.106;11.708;2023-06-10T03:55:26;9.60;;;8.90;;
1831;SDS011;1680;48.106;11.708;2023-06-10T03:57:53;11.17;;;10.23;;
1831;SDS011;1680;48.106;11.708;2023-06-10T04:00:21;10.50;;;9.60;;
1831;SDS011;1680;48.106;11.708;2023-06-10T04:02:48;10.20;;;9.30;;
1831;SDS011;1680;48.106;11.708;2023-06-10T04:05:17;11.23;;;10.13;;
1831;SDS011;1680;48.106;11.708;2023-06-10T04:07:47;9.73;;;8.93;;
1831;SDS011;1680;48.106;11.708;2023-06-10T04:10:14;9.40;;;8.60;;
1831;SDS011;1680;48.106;11.708;2023-06-10T04:12:43;10.57;;;9.67;;
1831;SDS011;1680;48.106;11.708;2023-06-10T04:15:10;10.30;;;9.40;;
1831;SDS011;1680;48.106;11.708;2023-06-10T04:17:38;10.60;;;9.70;;
1831;SDS011;1680;48.106;11.708;2023-06-10T04:20:06;10.60;;;9.73;;
1831;SDS011;1680;48.106;11.708;2023-06-10T04:22:34;11.37;;;10.37;;
1831;SDS011;1680;48.106;11.708;2023-06-10T04:25:02;9.97;;;9.17;;
1831;SDS011;1680;48.106;11.708;2023-06-10T04:27:29;11.23;;;10.33;;
1831;SDS011;1680;48.106;11.708;2023-06-10T04:29:58;10.63;;;9.83;;
1831;SDS011;1680;48.106;11.708;2023-06-10T04:32:25;11.67;;;10.57;;
1831;SDS011;1680;48.106;11.708;2023-06-10T04:34:52;11.13;;;10.23;;
1831;SDS011;1680;48.106;11.708;2023-06-10T04:37:19;12.73;;;11.53;;
1831;SDS011;1680;48.106;11.708;2023-06-10T04:39:47;13.70;;;12.27;;
1831;SDS011;1680;48.106;11.708;2023-06-10T04:42:14;14.13;;;12.93;;
1831;SDS011;1680;48.106;11.708;2023-06-10T04:44:41;14.87;;;13.50;;
1831;SDS011;1680;48.106;11.708;2023-06-10T04:47:10;14.60;;;13.30;;
1831;SDS011;1680;48.106;11.708;2023-06-10T04:49:37;13.60;;;12.30;;
1831;SDS011;1680;48.106;11.708;2023-06-10T04:52:04;13.60;;;12.47;;
1831;SDS011;1680;48.106;11.708;2023-06-10T04:54:32;14.23;;;12.93;;
1831;SDS011;1680;48.106;11.708;2023-06-10T04:56:59;14.37;;;13.10;;
1831;SDS011;1680;48.106;11.708;2023-06-10T04:59:26;14.80;;;13.50;;
1831;SDS011;1680;48.106;11.708;2023-06-10T05:01:55;14.13;;;12.93;;
1831;SDS011;1680;48.106;11.708;2023-06-10T05:04:23;13.27;;;12.07;;
1831;SDS011;1680;48.106;11.708;2023-06-10T05:06:50;14.60;;;13.30;;
1831;SDS011;1680;48.106;11.708;2023-06-10T05:09:18;14.90;;;13.60;;
1831;SDS011;1680;48.106;11.708;2023-06-10T05:11:45;13.70;;;12.50;;
1831;SDS011;1680;48.106;11.708;2023-06-10T05:14:12;14.00;;;12.70;;
1831;SDS011;1680;48.106;11.708;2023-06-10T05:16:41;14.43;;;13.10;;
1831;SDS011;1680;48.106;11.708;2023-06-10T05:19:08;14.43;;;12.93;;
1831;SDS011;1680;48.106;11.708;2023-06-10T05:21:37;14.03;;;12.73;;
1831;SDS011;1680;48.106;11.708;2023-06-10T05:24:05;14.53;;;13.23;;
1831;SDS011;1680;48.106;11.708;2023-06-10T05:26:32;15.50;;;14.00;;
1831;SDS011;1680;48.106;11.708;2023-06-10T05:29:02;14.63;;;13.33;;
1831;SDS011;1680;48.106;11.708;2023-06-10T05:31:29;13.17;;;12.07;;
1831;SDS011;1680;48.106;11.708;2023-06-10T05:33:57;14.00;;;12.50;;
1831;SDS011;1680;48.106;11.708;2023-06-10T05:36:24;15.90;;;14.40;;
1831;SDS011;1680;48.106;11.708;2023-06-10T05:38:53;13.90;;;12.70;;
1831;SDS011;1680;48.106;11.708;2023-06-10T05:41:20;13.63;;;12.33;;
1831;SDS011;1680;48.106;11.708;2023-06-10T05:43:48;13.83;;;12.60;;
1831;SDS011;1680;48.106;11.708;2023-06-10T05:46:15;13.60;;;12.47;;
1831;SDS011;1680;48.106;11.708;2023-06-10T05:48:42;12.80;;;11.70;;
1831;SDS011;1680;48.106;11.708;2023-06-10T05:51:09;13.47;;;12.17;;
1831;SDS011;1680;48.106;11.708;2023-06-10T05:53:36;12.40;;;11.30;;
1831;SDS011;1680;48.106;11.708;2023-06-10T05:56:06;14.47;;;13.27;;
1831;SDS011;1680;48.106;11.708;2023-06-10T05:58:33;14.30;;;12.90;;
1831;SDS011;1680;48.106;11.708;2023-06-10T06:01:00;13.53;;;12.40;;
1831;SDS011;1680;48.106;11.708;2023-06-10T06:03:27;13.57;;;12.37;;
1831;SDS011;1680;48.106;11.708;2023-06-10T06:05:54;13.87;;;12.47;;
1831;SDS011;1680;48.106;11.708;2023-06-10T06:08:21;12.20;;;11.10;;
1831;SDS011;1680;48.106;11.708;2023-06-10T06:10:49;12.30;;;11.20;;
1831;SDS011;1680;48.106;11.708;2023-06-10T06:13:18;14.00;;;12.60;;
1831;SDS011;1680;48.106;11.708;2023-06-10T06:15:45;12.67;;;11.57;;
1831;SDS011;1680;48.106;11.708;2023-06-10T06:18:12;12.87;;;11.67;;
1831;SDS011;1680;48.106;11.708;2023-06-10T06:20:39;12.40;;;11.23;;
1831;SDS011;1680;48.106;11.708;2023-06-10T06:23:06;13.73;;;12.63;;
1831;SDS011;1680;48.106;11.708;2023-06-10T06:25:35;12.80;;;11.60;;
1831;SDS011;1680;48.106;11.708;2023-06-10T06:28:04;13.00;;;11.90;;
1831;SDS011;1680;48.106;11.708;2023-06-10T06:30:32;13.23;;;12.00;;
1831;SDS011;1680;48.106;11.708;2023-06-10T06:32:59;11.90;;;10.90;;
1831;SDS011;1680;48.106;11.708;2023-06-10T06:35:27;11.47;;;10.47;;
1831;SDS011;1680;48.106;11.708;2023-06-10T06:37:54;11.20;;;10.23;;
1831;SDS011;1680;48.106;11.708;2023-06-10T06:40:22;12.60;;;11.50;;
1831;SDS011;1680;48.106;11.708;2023-06-10T06:42:49;11.20;;;10.20;;
1831;SDS011;1680;48.106;11.708;2023-06-10T06:45:16;11.77;;;10.77;;
1831;SDS011;1680;48.106;11.708;2023-06-10T06:47:44;10.23;;;9.43;;
1831;SDS011;1680;48.106;11.708;2023-06-10T06:50:11;11.03;;;10.17;;
1831;SDS011;1680;48.106;11.708;2023-06-10T06:52:38;11.37;;;10.47;;
1831;SDS011;1680;48.106;11.708;2023-06-10T06:55:06;9.93;;;9.03;;
1831;SDS011;1680;48.106;11.708;2023-06-10T06:57:33;12.10;;;11.00;;
1831;SDS011;1680;48.106;11.708;2023-06-10T07:00:01;11.80;;;10.90;;
1831;SDS011;1680;48.106;11.708;2023-06-10T07:02:29;11.37;;;10.43;;
1831;SDS011;1680;48.106;11.708;2023-06-10T07:04:59;12.17;;;10.73;;
1831;SDS011;1680;48.106;11.708;2023-06-10T07:07:26;11.40;;;10.30;;
1831;SDS011;1680;48.106;11.708;2023-06-10T07:09:53;11.33;;;10.30;;
1831;SDS011;1680;48.106;11.708;2023-06-10T07:12:21;11.00;;;10.00;;
1831;SDS011;1680;48.106;11.708;2023-06-10T07:14:49;9.80;;;9.00;;
1831;SDS011;1680;48.106;11.708;2023-06-10T07:17:16;11.03;;;10.13;;
1831;SDS011;1680;48.106;11.708;2023-06-10T07:19:43;10.40;;;9.40;;
1831;SDS011;1680;48.106;11.708;2023-06-10T07:22:12;10.60;;;9.60;;
1831;SDS011;1680;48.106;11.708;2023-06-10T07:24:40;11.03;;;10.13;;
1831;SDS011;1680;48.106;11.708;2023-06-10T07:27:07;10.50;;;9.67;;
1831;SDS011;1680;48.106;11.708;2023-06-10T07:29:35;10.30;;;9.50;;
1831;SDS011;1680;48.106;11.708;2023-06-10T07:32:02;9.43;;;8.63;;
1831;SDS011;1680;48.106;11.708;2023-06-10T07:34:30;9.00;;;8.30;;
1831;SDS011;1680;48.106;11.708;2023-06-10T07:36:57;9.27;;;8.57;;
1831;SDS011;1680;48.106;11.708;2023-06-10T07:39:26;7.83;;;7.23;;
1831;SDS011;1680;48.106;11.708;2023-06-10T07:41:53;9.40;;;8.60;;
1831;SDS011;1680;48.106;11.708;2023-06-10T07:44:22;9.13;;;8.43;;
1831;SDS011;1680;48.106;11.708;2023-06-10T07:46:49;9.27;;;8.47;;
1831;SDS011;1680;48.106;11.708;2023-06-10T07:49:16;8.50;;;7.90;;
1831;SDS011;1680;48.106;11.708;2023-06-10T07:51:43;7.83;;;7.13;;
1831;SDS011;1680;48.106;11.708;2023-06-10T07:54:10;7.10;;;6.50;;
1831;SDS011;1680;48.106;11.708;2023-06-10T07:56:39;8.17;;;7.47;;
1831;SDS011;1680;48.106;11.708;2023-06-10T07:59:07;7.23;;;6.73;;
1831;SDS011;1680;48.106;11.708;2023-06-10T08:01:34;7.60;;;7.00;;
1831;SDS011;1680;48.106;11.708;2023-06-10T08:04:04;7.87;;;7.27;;
1831;SDS011;1680;48.106;11.708;2023-06-10T08:06:31;7.97;;;7.37;;
1831;SDS011;1680;48.106;11.708;2023-06-10T08:08:59;7.60;;;7.00;;
1831;SDS011;1680;48.106;11.708;2023-06-10T08:11:26;6.80;;;6.30;;
1831;SDS011;1680;48.106;11.708;2023-06-10T08:13:54;7.17;;;6.67;;
1831;SDS011;1680;48.106;11.708;2023-06-10T08:16:22;6.93;;;6.43;;
1831;SDS011;1680;48.106;11.708;2023-06-10T08:18:49;6.60;;;6.10;;
1831;SDS011;1680;48.106;11.708;2023-06-10T08:21:16;7.03;;;6.53;;
1831;SDS011;1680;48.106;11.708;2023-06-10T08:23:44;6.10;;;5.70;;
1831;SDS011;1680;48.106;11.708;2023-06-10T08:26:11;7.43;;;6.83;;
1831;SDS011;1680;48.106;11.708;2023-06-10T08:28:39;6.73;;;6.23;;
1831;SDS011;1680;48.106;11.708;2023-06-10T08:31:07;7.07;;;6.57;;
1831;SDS011;1680;48.106;11.708;2023-06-10T08:33:34;6.60;;;6.10;;
1831;SDS011;1680;48.106;11.708;2023-06-10T08:36:02;7.90;;;6.30;;
1831;SDS011;1680;48.106;11.708;2023-06-10T08:38:29;6.47;;;5.97;;
1831;SDS011;1680;48.106;11.708;2023-06-10T08:40:57;5.67;;;5.27;;
1831;SDS011;1680;48.106;11.708;2023-06-10T08:43:28;6.13;;;5.63;;
1831;SDS011;1680;48.106;11.708;2023-06-10T08:45:59;6.53;;;5.93;;
1831;SDS011;1680;48.106;11.708;2023-06-10T08:48:30;5.90;;;5.50;;
1831;SDS011;1680;48.106;11.708;2023-06-10T08:51:01;5.33;;;4.93;;
1831;SDS011;1680;48.106;11.708;2023-06-10T08:53:31;6.60;;;5.97;;
1831;SDS011;1680;48.106;11.708;2023-06-10T08:56:03;6.70;;;6.20;;
1831;SDS011;1680;48.106;11.708;2023-06-10T08:58:32;7.77;;;7.17;;
1831;SDS011;1680;48.106;11.708;2023-06-10T09:01:05;6.00;;;5.50;;
1831;SDS011;1680;48.106;11.708;2023-06-10T09:03:34;5.47;;;5.03;;
1831;SDS011;1680;48.106;11.708;2023-06-10T09:06:03;6.00;;;5.50;;
1831;SDS011;1680;48.106;11.708;2023-06-10T09:08:33;5.60;;;5.20;;
1831;SDS011;1680;48.106;11.708;2023-06-10T09:11:00;7.20;;;6.60;;
1831;SDS011;1680;48.106;11.708;2023-06-10T09:13:28;5.83;;;5.37;;
1831;SDS011;1680;48.106;11.708;2023-06-10T09:15:56;5.57;;;5.17;;
1831;SDS011;1680;48.106;11.708;2023-06-10T09:18:26;5.60;;;5.10;;
1831;SDS011;1680;48.106;11.708;2023-06-10T09:20:54;6.60;;;6.00;;
1831;SDS011;1680;48.106;11.708;2023-06-10T09:23:22;6.03;;;5.30;;
1831;SDS011;1680;48.106;11.708;2023-06-10T09:25:55;6.47;;;5.97;;
1831;SDS011;1680;48.106;11.708;2023-06-10T09:28:24;6.90;;;6.40;;
1831;SDS011;1680;48.106;11.708;2023-06-10T09:31:00;6.53;;;6.03;;
1831;SDS011;1680;48.106;11.708;2023-06-10T09:33:30;7.90;;;7.30;;
1831;SDS011;1680;48.106;11.708;2023-06-10T09:36:00;6.67;;;6.17;;
1831;SDS011;1680;48.106;11.708;2023-06-10T09:38:32;7.27;;;6.67;;
1831;SDS011;1680;48.106;11.708;2023-06-10T09:41:00;7.77;;;7.17;;
1831;SDS011;1680;48.106;11.708;2023-06-10T09:46:15;6.70;;;6.20;;
1831;SDS011;1680;48.106;11.708;2023-06-10T09:48:43;6.93;;;6.33;;
1831;SDS011;1680;48.106;11.708;2023-06-10T09:51:13;8.00;;;7.30;;
1831;SDS011;1680;48.106;11.708;2023-06-10T09:53:42;8.17;;;7.47;;
1831;SDS011;1680;48.106;11.708;2023-06-10T09:56:09;6.97;;;6.43;;
1831;SDS011;1680;48.106;11.708;2023-06-10T09:58:37;12.97;;;11.77;;
1831;SDS011;1680;48.106;11.708;2023-06-10T10:01:08;6.70;;;6.20;;
1831;SDS011;1680;48.106;11.708;2023-06-10T10:03:44;7.60;;;7.00;;
1831;SDS011;1680;48.106;11.708;2023-06-10T10:06:13;6.43;;;5.90;;
1831;SDS011;1680;48.106;11.708;2023-06-10T10:08:41;6.00;;;5.60;;
1831;SDS011;1680;48.106;11.708;2023-06-10T10:11:09;6.80;;;6.30;;
1831;SDS011;1680;48.106;11.708;2023-06-10T10:13:37;7.03;;;6.30;;
1831;SDS011;1680;48.106;11.708;2023-06-10T10:16:06;7.10;;;6.50;;
1831;SDS011;1680;48.106;11.708;2023-06-10T10:18:38;6.73;;;6.23;;
1831;SDS011;1680;48.106;11.708;2023-06-10T10:21:11;6.73;;;6.13;;
1831;SDS011;1680;48.106;11.708;2023-06-10T10:23:44;5.90;;;5.50;;
1831;SDS011;1680;48.106;11.708;2023-06-10T10:26:19;6.17;;;5.70;;
1831;SDS011;1680;48.106;11.708;2023-06-10T10:28:50;6.13;;;5.63;;
1831;SDS011;1680;48.106;11.708;2023-06-10T10:31:25;6.27;;;5.87;;
1831;SDS011;1680;48.106;11.708;2023-06-10T10:33:57;6.17;;;5.67;;
1831;SDS011;1680;48.106;11.708;2023-06-10T10:36:27;5.50;;;5.10;;
1831;SDS011;1680;48.106;11.708;2023-06-10T10:38:54;5.93;;;5.50;;
1831;SDS011;1680;48.106;11.708;2023-06-10T10:41:23;7.27;;;6.67;;
1831;SDS011;1680;48.106;11.708;2023-06-10T10:43:51;7.23;;;6.63;;
1831;SDS011;1680;48.106;11.708;2023-06-10T10:46:20;6.10;;;5.70;;
1831;SDS011;1680;48.106;11.708;2023-06-10T10:48:50;5.80;;;5.40;;
1831;SDS011;1680;48.106;11.708;2023-06-10T10:51:19;5.83;;;5.33;;
1831;SDS011;1680;48.106;11.708;2023-06-10T10:56:39;6.47;;;5.90;;
1831;SDS011;1680;48.106;11.708;2023-06-10T10:59:27;6.13;;;5.53;;
1831;SDS011;1680;48.106;11.708;2023-06-10T11:02:10;5.37;;;4.97;;
1831;SDS011;1680;48.106;11.708;2023-06-10T11:04:46;5.30;;;4.90;;
1831;SDS011;1680;48.106;11.708;2023-06-10T11:07:14;5.37;;;4.97;;
1831;SDS011;1680;48.106;11.708;2023-06-10T11:09:58;5.77;;;5.27;;
1831;SDS011;1680;48.106;11.708;2023-06-10T11:12:26;4.90;;;4.23;;
1831;SDS011;1680;48.106;11.708;2023-06-10T11:15:05;5.77;;;5.27;;
1831;SDS011;1680;48.106;11.708;2023-06-10T11:17:33;6.23;;;4.87;;
1831;SDS011;1680;48.106;11.708;2023-06-10T11:20:01;4.77;;;4.47;;
1831;SDS011;1680;48.106;11.708;2023-06-10T11:22:29;4.70;;;4.40;;
1831;SDS011;1680;48.106;11.708;2023-06-10T11:24:57;4.80;;;4.50;;
1831;SDS011;1680;48.106;11.708;2023-06-10T11:27:25;4.77;;;4.00;;
1831;SDS011;1680;48.106;11.708;2023-06-10T11:29:55;4.27;;;3.93;;
1831;SDS011;1680;48.106;11.708;2023-06-10T11:32:24;5.70;;;5.27;;
1831;SDS011;1680;48.106;11.708;2023-06-10T11:34:56;7.90;;;7.20;;
1831;SDS011;1680;48.106;11.708;2023-06-10T11:37:24;4.57;;;4.17;;
1831;SDS011;1680;48.106;11.708;2023-06-10T11:39:52;4.10;;;3.80;;
1831;SDS011;1680;48.106;11.708;2023-06-10T11:42:21;4.77;;;4.37;;
1831;SDS011;1680;48.106;11.708;2023-06-10T11:44:49;4.00;;;3.70;;
1831;SDS011;1680;48.106;11.708;2023-06-10T11:47:17;4.40;;;4.10;;
1831;SDS011;1680;48.106;11.708;2023-06-10T11:49:44;4.30;;;3.90;;
1831;SDS011;1680;48.106;11.708;2023-06-10T11:52:12;4.20;;;3.90;;
1831;SDS011;1680;48.106;11.708;2023-06-10T11:54:39;4.30;;;4.00;;
1831;SDS011;1680;48.106;11.708;2023-06-10T11:57:06;4.10;;;3.80;;
1831;SDS011;1680;48.106;11.708;2023-06-10T11:59:35;4.83;;;4.43;;
1831;SDS011;1680;48.106;11.708;2023-06-10T12:02:02;3.93;;;3.63;;
1831;SDS011;1680;48.106;11.708;2023-06-10T12:04:29;4.37;;;4.07;;
1831;SDS011;1680;48.106;11.708;2023-06-10T12:06:56;4.40;;;4.10;;
1831;SDS011;1680;48.106;11.708;2023-06-10T12:09:24;3.93;;;3.63;;
1831;SDS011;1680;48.106;11.708;2023-06-10T12:11:53;4.17;;;3.80;;
1831;SDS011;1680;48.106;11.708;2023-06-10T12:17:22;4.40;;;4.10;;
1831;SDS011;1680;48.106;11.708;2023-06-10T12:19:50;4.00;;;3.70;;
1831;SDS011;1680;48.106;11.708;2023-06-10T12:22:17;4.53;;;4.13;;
1831;SDS011;1680;48.106;11.708;2023-06-10T12:24:45;4.77;;;4.40;;
1831;SDS011;1680;48.106;11.708;2023-06-10T12:27:25;4.87;;;4.47;;
1831;SDS011;1680;48.106;11.708;2023-06-10T12:29:56;4.93;;;4.53;;
1831;SDS011;1680;48.106;11.708;2023-06-10T12:32:34;4.07;;;3.77;;
1831;SDS011;1680;48.106;11.708;2023-06-10T12:35:02;4.60;;;4.30;;
1831;SDS011;1680;48.106;11.708;2023-06-10T12:37:31;5.10;;;4.70;;
1831;SDS011;1680;48.106;11.708;2023-06-10T12:39:59;5.30;;;4.80;;
1831;SDS011;1680;48.106;11.708;2023-06-10T12:42:28;4.50;;;4.20;;
1831;SDS011;1680;48.106;11.708;2023-06-10T12:44:57;4.90;;;4.60;;
1831;SDS011;1680;48.106;11.708;2023-06-10T12:47:29;4.83;;;4.53;;
1831;SDS011;1680;48.106;11.708;2023-06-10T12:49:58;5.23;;;4.83;;
1831;SDS011;1680;48.106;11.708;2023-06-10T12:52:25;5.47;;;5.07;;
1831;SDS011;1680;48.106;11.708;2023-06-10T12:54:52;5.53;;;5.13;;
1831;SDS011;1680;48.106;11.708;2023-06-10T12:57:20;6.40;;;5.90;;
1831;SDS011;1680;48.106;11.708;2023-06-10T12:59:47;6.30;;;5.77;;
1831;SDS011;1680;48.106;11.708;2023-06-10T13:02:19;6.53;;;6.03;;
1831;SDS011;1680;48.106;11.708;2023-06-10T13:04:49;6.40;;;5.90;;
1831;SDS011;1680;48.106;11.708;2023-06-10T13:07:16;6.93;;;6.40;;
1831;SDS011;1680;48.106;11.708;2023-06-10T13:09:43;5.77;;;5.37;;
1831;SDS011;1680;48.106;11.708;2023-06-10T13:12:13;6.60;;;6.10;;
1831;SDS011;1680;48.106;11.708;2023-06-10T13:14:42;6.13;;;5.60;;
1831;SDS011;1680;48.106;11.708;2023-06-10T13:17:10;5.50;;;5.10;;
1831;SDS011;1680;48.106;11.708;2023-06-10T13:19:38;5.70;;;5.30;;
1831;SDS011;1680;48.106;11.708;2023-06-10T13:22:05;5.80;;;5.33;;
1831;SDS011;1680;48.106;11.708;2023-06-10T13:24:32;6.30;;;5.80;;
1831;SDS011;1680;48.106;11.708;2023-06-10T13:27:00;5.10;;;4.73;;
1831;SDS011;1680;48.106;11.708;2023-06-10T13:29:27;5.70;;;5.20;;
1831;SDS011;1680;48.106;11.708;2023-06-10T13:31:55;5.60;;;5.17;;
1831;SDS011;1680;48.106;11.708;2023-06-10T13:34:23;5.40;;;4.90;;
1831;SDS011;1680;48.106;11.708;2023-06-10T13:36:51;5.13;;;4.70;;
1831;SDS011;1680;48.106;11.708;2023-06-10T13:39:18;5.03;;;4.60;;
1831;SDS011;1680;48.106;11.708;2023-06-10T13:41:46;4.70;;;4.40;;
1831;SDS011;1680;48.106;11.708;2023-06-10T13:44:13;4.67;;;4.27;;
1831;SDS011;1680;48.106;11.708;2023-06-10T13:46:40;4.90;;;4.50;;
1831;SDS011;1680;48.106;11.708;2023-06-10T13:49:07;5.10;;;4.80;;
1831;SDS011;1680;48.106;11.708;2023-06-10T13:51:34;4.90;;;4.40;;
1831;SDS011;1680;48.106;11.708;2023-06-10T13:54:03;5.30;;;4.90;;
1831;SDS011;1680;48.106;11.708;2023-06-10T13:56:30;5.20;;;4.80;;
1831;SDS011;1680;48.106;11.708;2023-06-10T13:58:59;5.03;;;4.63;;
1831;SDS011;1680;48.106;11.708;2023-06-10T14:01:26;5.20;;;4.80;;
1831;SDS011;1680;48.106;11.708;2023-06-10T14:03:53;4.33;;;4.03;;
1831;SDS011;1680;48.106;11.708;2023-06-10T14:06:20;5.20;;;4.70;;
1831;SDS011;1680;48.106;11.708;2023-06-10T14:08:47;5.33;;;4.83;;
1831;SDS011;1680;48.106;11.708;2023-06-10T14:11:16;4.90;;;4.50;;
1831;SDS011;1680;48.106;11.708;2023-06-10T14:13:43;5.70;;;5.30;;
1831;SDS011;1680;48.106;11.708;2023-06-10T14:16:10;5.30;;;5.00;;
1831;SDS011;1680;48.106;11.708;2023-06-10T14:18:37;4.77;;;4.33;;
1831;SDS011;1680;48.106;11.708;2023-06-10T14:21:04;5.00;;;4.60;;
1831;SDS011;1680;48.106;11.708;2023-06-10T14:23:32;4.93;;;4.63;;
1831;SDS011;1680;48.106;11.708;2023-06-10T14:28:32;5.10;;;4.60;;
1831;SDS011;1680;48.106;11.708;2023-06-10T14:30:59;4.57;;;4.27;;
1831;SDS011;1680;48.106;11.708;2023-06-10T14:33:26;4.60;;;4.30;;
1831;SDS011;1680;48.106;11.708;2023-06-10T14:35:54;5.17;;;4.80;;
1831;SDS011;1680;48.106;11.708;2023-06-10T14:38:21;4.13;;;3.83;;
1831;SDS011;1680;48.106;11.708;2023-06-10T14:40:48;4.83;;;4.43;;
1831;SDS011;1680;48.106;11.708;2023-06-10T14:43:15;3.93;;;3.73;;
1831;SDS011;1680;48.106;11.708;2023-06-10T14:45:44;4.60;;;4.30;;
1831;SDS011;1680;48.106;11.708;2023-06-10T14:48:11;5.77;;;4.50;;
1831;SDS011;1680;48.106;11.708;2023-06-10T14:50:38;5.20;;;4.80;;
1831;SDS011;1680;48.106;11.708;2023-06-10T14:53:07;6.00;;;5.60;;
1831;SDS011;1680;48.106;11.708;2023-06-10T14:55:34;5.93;;;5.43;;
1831;SDS011;1680;48.106;11.708;2023-06-10T14:58:01;5.43;;;5.03;;
1831;SDS011;1680;48.106;11.708;2023-06-10T15:00:28;5.73;;;5.27;;
1831;SDS011;1680;48.106;11.708;2023-06-10T15:02:57;5.43;;;5.00;;
1831;SDS011;1680;48.106;11.708;2023-06-10T15:05:24;6.07;;;5.60;;
1831;SDS011;1680;48.106;11.708;2023-06-10T15:07:51;5.80;;;5.30;;
1831;SDS011;1680;48.106;11.708;2023-06-10T15:10:18;5.37;;;4.87;;